sensor_id;sensor_type;location;lat;lon;timestamp;pressure;altitude;pressure_sealevel;temperature;humidity
11605;BME280;5858;43.076;25.626;2023-01-24T00:01:45;100606.72;;;1.70;100.00
11605;BME280;5858;43.076;25.626;2023-01-24T00:04:21;100584.28;;;1.34;100.00
11605;BME280;5858;43.076;25.626;2023-01-24T00:06:54;100734.13;;;2.43;100.00
11605;BME280;5858;43.076;25.626;2023-01-24T00:09:22;100540.31;;;1.06;100.00
11605;BME280;5858;43.076;25.626;2023-01-24T00:11:50;100681.84;;;1.93;100.00
11605;BME280;5858;43.076;25.626;2023-01-24T00:14:27;100570.31;;;1.04;100.00
11605;BME280;5858;43.076;25.626;2023-01-24T00:16:56;100712.28;;;1.98;100.00
11605;BME280;5858;43.076;25.626;2023-01-24T00:19:26;100701.88;;;1.81;100.00
11605;BME280;5858;43.076;25.626;2023-01-24T00:21:53;100561.94;;;0.97;100.00
11605;BME280;5858;43.076;25.626;2023-01-24T00:24:24;100537.97;;;0.72;100.00
11605;BME280;5858;43.076;25.626;2023-01-24T00:26:51;100535.00;;;0.92;100.00
11605;BME280;5858;43.076;25.626;2023-01-24T00:29:19;100625.41;;;1.22;100.00
11605;BME280;5858;43.076;25.626;2023-01-24T00:31:48;100772.22;;;2.10;100.00
11605;BME280;5858;43.076;25.626;2023-01-24T00:34:15;100611.69;;;1.32;100.00
11605;BME280;5858;43.076;25.626;2023-01-24T00:36:43;100539.31;;;0.93;100.00
11605;BME280;5858;43.076;25.626;2023-01-24T00:39:11;100572.63;;;0.80;100.00
11605;BME280;5858;43.076;25.626;2023-01-24T00:41:43;100644.47;;;1.42;100.00
11605;BME280;5858;43.076;25.626;2023-01-24T00:44:11;100550.59;;;0.81;100.00
11605;BME280;5858;43.076;25.626;2023-01-24T00:46:41;100551.53;;;0.80;100.00
11605;BME280;5858;43.076;25.626;2023-01-24T00:49:28;100527.50;;;0.56;100.00
11605;BME280;5858;43.076;25.626;2023-01-24T00:51:56;100751.13;;;1.96;100.00
11605;BME280;5858;43.076;25.626;2023-01-24T00:54:24;100769.41;;;1.99;100.00
11605;BME280;5858;43.076;25.626;2023-01-24T00:56:57;100646.97;;;1.15;100.00
11605;BME280;5858;43.076;25.626;2023-01-24T00:59:25;100637.66;;;1.23;100.00
11605;BME280;5858;43.076;25.626;2023-01-24T01:01:52;100580.03;;;0.73;100.00
11605;BME280;5858;43.076;25.626;2023-01-24T01:04:22;100791.69;;;1.79;100.00
11605;BME280;5858;43.076;25.626;2023-01-24T01:06:53;100687.66;;;1.25;100.00
11605;BME280;5858;43.076;25.626;2023-01-24T01:09:26;100621.91;;;1.08;100.00
11605;BME280;5858;43.076;25.626;2023-01-24T01:11:58;100578.03;;;0.47;100.00
11605;BME280;5858;43.076;25.626;2023-01-24T01:14:25;100758.47;;;1.47;100.00
11605;BME280;5858;43.076;25.626;2023-01-24T01:16:53;100633.03;;;0.83;100.00
11605;BME280;5858;43.076;25.626;2023-01-24T01:19:22;100738.44;;;1.58;100.00
11605;BME280;5858;43.076;25.626;2023-01-24T01:21:53;100689.09;;;1.31;100.00
11605;BME280;5858;43.076;25.626;2023-01-24T01:24:20;100568.72;;;0.41;100.00
11605;BME280;5858;43.076;25.626;2023-01-24T01:26:51;100558.44;;;0.37;100.00
11605;BME280;5858;43.076;25.626;2023-01-24T01:29:21;100779.06;;;1.70;100.00
11605;BME280;5858;43.076;25.626;2023-01-24T01:31:51;100585.94;;;0.47;100.00
11605;BME280;5858;43.076;25.626;2023-01-24T01:34:21;100648.53;;;1.03;100.00
11605;BME280;5858;43.076;25.626;2023-01-24T01:36:48;100733.06;;;1.60;100.00
11605;BME280;5858;43.076;25.626;2023-01-24T01:39:17;100774.50;;;1.58;99.47
11605;BME280;5858;43.076;25.626;2023-01-24T01:41:44;100590.56;;;0.73;99.38
11605;BME280;5858;43.076;25.626;2023-01-24T01:44:19;100587.41;;;0.52;99.37
11605;BME280;5858;43.076;25.626;2023-01-24T01:47:17;100645.91;;;0.57;100.00
11605;BME280;5858;43.076;25.626;2023-01-24T01:49:51;100742.09;;;1.26;100.00
11605;BME280;5858;43.076;25.626;2023-01-24T01:52:22;100582.63;;;0.43;99.58
11605;BME280;5858;43.076;25.626;2023-01-24T01:54:57;100696.28;;;1.13;99.71
11605;BME280;5858;43.076;25.626;2023-01-24T01:57:28;100573.75;;;0.30;99.06
11605;BME280;5858;43.076;25.626;2023-01-24T02:00:03;100712.66;;;1.04;99.18
11605;BME280;5858;43.076;25.626;2023-01-24T02:02:31;100666.34;;;0.84;99.20
11605;BME280;5858;43.076;25.626;2023-01-24T02:05:03;100786.34;;;1.51;98.74
11605;BME280;5858;43.076;25.626;2023-01-24T02:07:34;100581.66;;;0.30;98.95
11605;BME280;5858;43.076;25.626;2023-01-24T02:10:05;100637.00;;;0.60;99.12
11605;BME280;5858;43.076;25.626;2023-01-24T02:12:38;100688.56;;;1.10;99.05
11605;BME280;5858;43.076;25.626;2023-01-24T02:15:12;100614.06;;;0.46;98.98
11605;BME280;5858;43.076;25.626;2023-01-24T02:17:57;100574.34;;;0.19;98.94
11605;BME280;5858;43.076;25.626;2023-01-24T02:20:36;100602.09;;;0.41;99.02
11605;BME280;5858;43.076;25.626;2023-01-24T02:23:14;100706.34;;;1.06;98.93
11605;BME280;5858;43.076;25.626;2023-01-24T02:26:00;100583.06;;;0.36;98.66
11605;BME280;5858;43.076;25.626;2023-01-24T02:28:27;100611.00;;;0.38;98.41
11605;BME280;5858;43.076;25.626;2023-01-24T02:30:56;100734.28;;;1.24;98.73
11605;BME280;5858;43.076;25.626;2023-01-24T02:33:23;100596.09;;;0.23;98.61
11605;BME280;5858;43.076;25.626;2023-01-24T02:36:09;100605.00;;;0.52;98.06
11605;BME280;5858;43.076;25.626;2023-01-24T02:38:39;100723.94;;;1.06;98.26
11605;BME280;5858;43.076;25.626;2023-01-24T02:41:09;100543.03;;;-0.01;98.11
11605;BME280;5858;43.076;25.626;2023-01-24T02:43:40;100726.66;;;0.88;98.55
11605;BME280;5858;43.076;25.626;2023-01-24T02:46:09;100763.19;;;1.26;97.68
11605;BME280;5858;43.076;25.626;2023-01-24T02:48:36;100607.06;;;0.15;97.51
11605;BME280;5858;43.076;25.626;2023-01-24T02:51:04;100589.38;;;0.17;97.23
11605;BME280;5858;43.076;25.626;2023-01-24T02:53:49;100594.47;;;0.20;97.23
11605;BME280;5858;43.076;25.626;2023-01-24T02:56:17;100708.13;;;0.90;97.08
11605;BME280;5858;43.076;25.626;2023-01-24T02:59:02;100729.03;;;0.93;97.48
11605;BME280;5858;43.076;25.626;2023-01-24T03:01:35;100571.84;;;0.02;97.51
11605;BME280;5858;43.076;25.626;2023-01-24T03:04:02;100759.69;;;1.25;96.67
11605;BME280;5858;43.076;25.626;2023-01-24T03:06:29;100780.34;;;1.33;97.15
11605;BME280;5858;43.076;25.626;2023-01-24T03:08:57;100638.09;;;0.40;96.31
11605;BME280;5858;43.076;25.626;2023-01-24T03:11:28;100577.44;;;0.12;96.67
11605;BME280;5858;43.076;25.626;2023-01-24T03:13:58;100585.66;;;0.06;96.36
11605;BME280;5858;43.076;25.626;2023-01-24T03:16:43;100769.47;;;1.23;97.00
11605;BME280;5858;43.076;25.626;2023-01-24T03:19:28;100577.41;;;-0.04;97.28
11605;BME280;5858;43.076;25.626;2023-01-24T03:22:12;100693.63;;;0.83;96.65
11605;BME280;5858;43.076;25.626;2023-01-24T03:24:57;100701.84;;;0.92;96.66
11605;BME280;5858;43.076;25.626;2023-01-24T03:27:43;100580.16;;;0.10;96.61
11605;BME280;5858;43.076;25.626;2023-01-24T03:30:27;100789.50;;;1.12;97.90
11605;BME280;5858;43.076;25.626;2023-01-24T03:33:11;100648.88;;;0.36;98.42
11605;BME280;5858;43.076;25.626;2023-01-24T03:35:56;100628.91;;;0.47;98.54
11605;BME280;5858;43.076;25.626;2023-01-24T03:38:27;100729.66;;;0.98;99.64
11605;BME280;5858;43.076;25.626;2023-01-24T03:41:11;100715.28;;;0.88;99.11
11605;BME280;5858;43.076;25.626;2023-01-24T03:43:41;100671.47;;;0.71;99.33
11605;BME280;5858;43.076;25.626;2023-01-24T03:46:10;100779.59;;;1.31;99.38
11605;BME280;5858;43.076;25.626;2023-01-24T03:48:40;100579.69;;;-0.14;99.36
11605;BME280;5858;43.076;25.626;2023-01-24T03:51:10;100569.78;;;-0.24;99.75
11605;BME280;5858;43.076;25.626;2023-01-24T03:53:55;100785.84;;;0.99;100.00
11605;BME280;5858;43.076;25.626;2023-01-24T03:56:22;100674.72;;;0.29;100.00
11605;BME280;5858;43.076;25.626;2023-01-24T03:58:55;100776.34;;;0.96;100.00
11605;BME280;5858;43.076;25.626;2023-01-24T04:01:22;100715.50;;;0.53;100.00
11605;BME280;5858;43.076;25.626;2023-01-24T04:03:49;100757.28;;;0.59;100.00
11605;BME280;5858;43.076;25.626;2023-01-24T04:06:17;100610.41;;;-0.30;100.00
11605;BME280;5858;43.076;25.626;2023-01-24T04:08:49;100646.19;;;0.06;100.00
11605;BME280;5858;43.076;25.626;2023-01-24T04:11:16;100696.78;;;0.42;100.00
11605;BME280;5858;43.076;25.626;2023-01-24T04:13:46;100540.72;;;-0.54;100.00
11605;BME280;5858;43.076;25.626;2023-01-24T04:16:23;100606.09;;;-0.31;100.00
11605;BME280;5858;43.076;25.626;2023-01-24T04:18:50;100768.25;;;0.68;100.00
11605;BME280;5858;43.076;25.626;2023-01-24T04:21:20;100643.19;;;-0.04;100.00
11605;BME280;5858;43.076;25.626;2023-01-24T04:23:50;100763.91;;;0.67;100.00
11605;BME280;5858;43.076;25.626;2023-01-24T04:26:17;100584.28;;;-0.33;100.00
11605;BME280;5858;43.076;25.626;2023-01-24T04:28:47;100757.38;;;0.74;100.00
11605;BME280;5858;43.076;25.626;2023-01-24T04:31:18;100704.84;;;0.39;100.00
11605;BME280;5858;43.076;25.626;2023-01-24T04:33:46;100759.31;;;0.70;100.00
11605;BME280;5858;43.076;25.626;2023-01-24T04:36:20;100633.66;;;-0.22;100.00
11605;BME280;5858;43.076;25.626;2023-01-24T04:38:54;100785.75;;;0.84;100.00
11605;BME280;5858;43.076;25.626;2023-01-24T04:41:26;100745.56;;;0.49;100.00
11605;BME280;5858;43.076;25.626;2023-01-24T04:43:53;100661.38;;;0.01;100.00
11605;BME280;5858;43.076;25.626;2023-01-24T04:46:22;100600.06;;;-0.33;100.00
11605;BME280;5858;43.076;25.626;2023-01-24T04:48:50;100802.59;;;0.82;100.00
11605;BME280;5858;43.076;25.626;2023-01-24T04:51:18;100689.31;;;0.19;100.00
11605;BME280;5858;43.076;25.626;2023-01-24T04:53:48;100799.63;;;1.04;100.00
11605;BME280;5858;43.076;25.626;2023-01-24T04:56:15;100660.78;;;0.11;100.00
11605;BME280;5858;43.076;25.626;2023-01-24T04:58:48;100797.41;;;0.80;100.00
11605;BME280;5858;43.076;25.626;2023-01-24T05:01:28;100688.03;;;0.10;100.00
11605;BME280;5858;43.076;25.626;2023-01-24T05:03:59;100700.19;;;0.13;100.00
11605;BME280;5858;43.076;25.626;2023-01-24T05:06:27;100647.56;;;-0.20;100.00
11605;BME280;5858;43.076;25.626;2023-01-24T05:09:01;100631.88;;;-0.38;100.00
11605;BME280;5858;43.076;25.626;2023-01-24T05:11:48;100812.44;;;0.78;100.00
11605;BME280;5858;43.076;25.626;2023-01-24T05:14:23;100770.22;;;0.64;100.00
11605;BME280;5858;43.076;25.626;2023-01-24T05:17:13;100850.09;;;0.80;100.00
11605;BME280;5858;43.076;25.626;2023-01-24T05:19:59;100831.53;;;0.50;100.00
11605;BME280;5858;43.076;25.626;2023-01-24T05:22:43;100757.16;;;0.29;100.00
11605;BME280;5858;43.076;25.626;2023-01-24T05:25:30;100642.16;;;-0.50;100.00
11605;BME280;5858;43.076;25.626;2023-01-24T05:29:20;100848.72;;;0.73;100.00
11605;BME280;5858;43.076;25.626;2023-01-24T05:31:48;100821.03;;;0.82;100.00
11605;BME280;5858;43.076;25.626;2023-01-24T05:34:33;100820.69;;;0.72;100.00
11605;BME280;5858;43.076;25.626;2023-01-24T05:37:00;100821.53;;;0.73;100.00
11605;BME280;5858;43.076;25.626;2023-01-24T05:39:27;100643.25;;;-0.54;100.00
11605;BME280;5858;43.076;25.626;2023-01-24T05:41:55;100844.47;;;0.71;100.00
11605;BME280;5858;43.076;25.626;2023-01-24T05:44:22;100700.47;;;-0.09;100.00
11605;BME280;5858;43.076;25.626;2023-01-24T05:46:49;100743.97;;;0.14;100.00
11605;BME280;5858;43.076;25.626;2023-01-24T05:49:20;100720.22;;;-0.18;100.00
11605;BME280;5858;43.076;25.626;2023-01-24T05:51:47;100735.66;;;-0.12;100.00
11605;BME280;5858;43.076;25.626;2023-01-24T05:54:15;100655.69;;;-0.41;100.00
11605;BME280;5858;43.076;25.626;2023-01-24T05:56:49;100668.50;;;-0.35;100.00
11605;BME280;5858;43.076;25.626;2023-01-24T05:59:20;100840.56;;;0.78;100.00
11605;BME280;5858;43.076;25.626;2023-01-24T06:01:48;100729.13;;;0.13;100.00
11605;BME280;5858;43.076;25.626;2023-01-24T06:04:15;100745.59;;;0.16;100.00
11605;BME280;5858;43.076;25.626;2023-01-24T06:06:44;100725.56;;;0.14;100.00
11605;BME280;5858;43.076;25.626;2023-01-24T06:09:14;100739.56;;;0.14;100.00
11605;BME280;5858;43.076;25.626;2023-01-24T06:11:41;100812.78;;;0.72;100.00
11605;BME280;5858;43.076;25.626;2023-01-24T06:14:09;100761.06;;;0.38;100.00
11605;BME280;5858;43.076;25.626;2023-01-24T06:16:39;100868.16;;;1.04;100.00
11605;BME280;5858;43.076;25.626;2023-01-24T06:19:10;100861.16;;;1.03;100.00
11605;BME280;5858;43.076;25.626;2023-01-24T06:21:44;100820.00;;;0.69;100.00
11605;BME280;5858;43.076;25.626;2023-01-24T06:24:17;100692.97;;;-0.17;100.00
11605;BME280;5858;43.076;25.626;2023-01-24T06:26:45;100826.19;;;0.68;100.00
11605;BME280;5858;43.076;25.626;2023-01-24T06:29:15;100883.38;;;0.99;100.00
11605;BME280;5858;43.076;25.626;2023-01-24T06:31:54;100784.94;;;0.35;100.00
11605;BME280;5858;43.076;25.626;2023-01-24T06:34:36;100721.81;;;0.02;100.00
11605;BME280;5858;43.076;25.626;2023-01-24T06:37:14;100781.25;;;0.22;100.00
11605;BME280;5858;43.076;25.626;2023-01-24T06:39:47;100678.28;;;-0.21;100.00
11605;BME280;5858;43.076;25.626;2023-01-24T06:42:16;100831.06;;;0.75;100.00
11605;BME280;5858;43.076;25.626;2023-01-24T06:44:43;100805.72;;;0.73;100.00
11605;BME280;5858;43.076;25.626;2023-01-24T06:50:18;100663.25;;;-0.35;99.80
11605;BME280;5858;43.076;25.626;2023-01-24T06:52:56;100893.06;;;0.98;100.00
11605;BME280;5858;43.076;25.626;2023-01-24T06:55:23;100804.09;;;0.54;100.00
11605;BME280;5858;43.076;25.626;2023-01-24T06:58:00;100707.50;;;-0.10;99.28
11605;BME280;5858;43.076;25.626;2023-01-24T07:00:32;100755.44;;;0.13;99.22
11605;BME280;5858;43.076;25.626;2023-01-24T07:03:10;100828.25;;;0.78;99.41
11605;BME280;5858;43.076;25.626;2023-01-24T07:05:38;100725.72;;;0.11;99.82
11605;BME280;5858;43.076;25.626;2023-01-24T07:08:07;100874.53;;;1.00;99.77
11605;BME280;5858;43.076;25.626;2023-01-24T07:10:49;100873.47;;;0.86;99.13
11605;BME280;5858;43.076;25.626;2023-01-24T07:13:44;100822.78;;;0.50;99.03
11605;BME280;5858;43.076;25.626;2023-01-24T07:16:12;100870.34;;;0.96;100.00
11605;BME280;5858;43.076;25.626;2023-01-24T07:18:39;100781.88;;;0.43;98.80
11605;BME280;5858;43.076;25.626;2023-01-24T07:21:10;100888.72;;;1.13;99.25
11605;BME280;5858;43.076;25.626;2023-01-24T07:23:43;100858.00;;;0.80;99.24
11605;BME280;5858;43.076;25.626;2023-01-24T07:26:16;100784.00;;;0.36;99.25
11605;BME280;5858;43.076;25.626;2023-01-24T07:28:44;100692.53;;;-0.25;99.03
11605;BME280;5858;43.076;25.626;2023-01-24T07:31:26;100776.66;;;0.10;99.51
11605;BME280;5858;43.076;25.626;2023-01-24T07:34:10;100731.34;;;-0.13;99.95
11605;BME280;5858;43.076;25.626;2023-01-24T07:36:52;100910.88;;;0.93;100.00
11605;BME280;5858;43.076;25.626;2023-01-24T07:39:20;100707.78;;;-0.32;99.81
11605;BME280;5858;43.076;25.626;2023-01-24T07:42:08;100777.53;;;0.26;99.75
11605;BME280;5858;43.076;25.626;2023-01-24T07:44:48;100806.75;;;0.21;100.00
11605;BME280;5858;43.076;25.626;2023-01-24T07:47:21;100871.66;;;0.71;100.00
11605;BME280;5858;43.076;25.626;2023-01-24T07:50:00;100924.97;;;0.92;100.00
11605;BME280;5858;43.076;25.626;2023-01-24T07:55:47;100849.16;;;0.66;100.00
11605;BME280;5858;43.076;25.626;2023-01-24T07:59:00;100799.88;;;0.35;100.00
11605;BME280;5858;43.076;25.626;2023-01-24T08:01:33;100823.34;;;0.39;100.00
11605;BME280;5858;43.076;25.626;2023-01-24T08:07:31;100921.78;;;1.03;100.00
11605;BME280;5858;43.076;25.626;2023-01-24T08:13:42;100898.53;;;0.78;100.00
11605;BME280;5858;43.076;25.626;2023-01-24T08:16:37;100928.50;;;1.08;100.00
11605;BME280;5858;43.076;25.626;2023-01-24T08:19:25;100796.94;;;0.08;100.00
11605;BME280;5858;43.076;25.626;2023-01-24T08:22:02;100735.81;;;0.03;100.00
11605;BME280;5858;43.076;25.626;2023-01-24T08:24:45;100786.13;;;0.29;100.00
11605;BME280;5858;43.076;25.626;2023-01-24T08:27:13;100815.66;;;0.52;100.00
11605;BME280;5858;43.076;25.626;2023-01-24T08:29:44;100966.38;;;1.23;100.00
11605;BME280;5858;43.076;25.626;2023-01-24T08:36:26;100732.09;;;0.22;100.00
11605;BME280;5858;43.076;25.626;2023-01-24T08:39:55;100768.22;;;0.36;100.00
11605;BME280;5858;43.076;25.626;2023-01-24T08:42:27;100928.59;;;1.22;100.00
11605;BME280;5858;43.076;25.626;2023-01-24T08:55:34;100862.38;;;1.13;100.00
11605;BME280;5858;43.076;25.626;2023-01-24T08:58:16;100839.03;;;0.89;100.00
11605;BME280;5858;43.076;25.626;2023-01-24T09:20:48;100757.03;;;0.48;98.66
11605;BME280;5858;43.076;25.626;2023-01-24T09:23:15;100882.25;;;1.34;99.42
11605;BME280;5858;43.076;25.626;2023-01-24T09:25:57;100976.91;;;1.86;99.28
11605;BME280;5858;43.076;25.626;2023-01-24T09:28:31;100827.66;;;1.20;99.13
11605;BME280;5858;43.076;25.626;2023-01-24T09:31:07;100987.66;;;1.99;96.39
11605;BME280;5858;43.076;25.626;2023-01-24T09:33:40;100883.28;;;1.47;95.54
11605;BME280;5858;43.076;25.626;2023-01-24T09:36:09;100875.41;;;1.62;95.70
11605;BME280;5858;43.076;25.626;2023-01-24T09:38:41;100854.13;;;1.65;94.48
11605;BME280;5858;43.076;25.626;2023-01-24T09:41:23;100803.56;;;1.26;93.10
11605;BME280;5858;43.076;25.626;2023-01-24T09:44:00;100842.78;;;1.48;92.14
11605;BME280;5858;43.076;25.626;2023-01-24T09:46:36;100990.94;;;2.18;92.96
11605;BME280;5858;43.076;25.626;2023-01-24T09:49:15;100894.00;;;1.90;90.66
11605;BME280;5858;43.076;25.626;2023-01-24T09:51:47;100885.56;;;1.83;91.64
11605;BME280;5858;43.076;25.626;2023-01-24T09:54:20;100791.94;;;1.15;91.03
11605;BME280;5858;43.076;25.626;2023-01-24T09:56:49;100929.88;;;2.08;89.89
11605;BME280;5858;43.076;25.626;2023-01-24T09:59:35;100769.00;;;1.17;89.38
11605;BME280;5858;43.076;25.626;2023-01-24T10:02:15;100945.47;;;2.13;90.08
11605;BME280;5858;43.076;25.626;2023-01-24T10:04:48;100857.63;;;1.65;89.80
11605;BME280;5858;43.076;25.626;2023-01-24T10:07:39;100833.03;;;1.65;88.83
11605;BME280;5858;43.076;25.626;2023-01-24T10:10:29;100853.13;;;1.97;88.35
11605;BME280;5858;43.076;25.626;2023-01-24T10:26:57;100738.59;;;1.25;85.97
11605;BME280;5858;43.076;25.626;2023-01-24T10:29:35;100749.50;;;1.19;86.08
11605;BME280;5858;43.076;25.626;2023-01-24T10:38:46;100864.81;;;2.07;85.75
11605;BME280;5858;43.076;25.626;2023-01-24T10:45:16;100756.78;;;1.30;85.21
11605;BME280;5858;43.076;25.626;2023-01-24T10:47:57;100911.31;;;2.40;83.96
11605;BME280;5858;43.076;25.626;2023-01-24T10:53:42;100839.34;;;1.92;84.62
11605;BME280;5858;43.076;25.626;2023-01-24T10:56:26;100842.66;;;1.96;83.92
11605;BME280;5858;43.076;25.626;2023-01-24T10:59:03;100698.75;;;1.16;84.78
11605;BME280;5858;43.076;25.626;2023-01-24T11:01:59;100746.53;;;1.55;84.47
11605;BME280;5858;43.076;25.626;2023-01-24T11:04:41;100891.59;;;2.60;84.51
11605;BME280;5858;43.076;25.626;2023-01-24T11:07:29;100699.16;;;1.68;83.54
11605;BME280;5858;43.076;25.626;2023-01-24T11:10:01;100746.13;;;2.06;83.29
11605;BME280;5858;43.076;25.626;2023-01-24T11:12:35;100771.00;;;2.30;82.22
11605;BME280;5858;43.076;25.626;2023-01-24T11:15:24;100911.63;;;2.92;82.33
11605;BME280;5858;43.076;25.626;2023-01-24T11:17:58;100791.38;;;2.14;82.32
11605;BME280;5858;43.076;25.626;2023-01-24T11:20:31;100801.66;;;2.33;81.37
11605;BME280;5858;43.076;25.626;2023-01-24T11:23:09;100733.88;;;1.91;81.02
11605;BME280;5858;43.076;25.626;2023-01-24T11:25:56;100798.25;;;2.31;82.10
11605;BME280;5858;43.076;25.626;2023-01-24T11:28:24;100702.53;;;1.70;81.85
11605;BME280;5858;43.076;25.626;2023-01-24T11:30:52;100769.72;;;2.37;83.16
11605;BME280;5858;43.076;25.626;2023-01-24T11:33:33;100734.59;;;2.21;81.20
11605;BME280;5858;43.076;25.626;2023-01-24T11:36:19;100776.00;;;2.35;82.47
11605;BME280;5858;43.076;25.626;2023-01-24T11:39:11;100870.34;;;2.75;81.88
11605;BME280;5858;43.076;25.626;2023-01-24T11:41:53;100859.41;;;2.81;81.80
11605;BME280;5858;43.076;25.626;2023-01-24T11:45:05;100659.66;;;1.52;80.77
11605;BME280;5858;43.076;25.626;2023-01-24T11:48:14;100849.78;;;2.52;81.19
11605;BME280;5858;43.076;25.626;2023-01-24T11:51:29;100667.78;;;1.19;81.20
11605;BME280;5858;43.076;25.626;2023-01-24T11:54:36;100794.47;;;1.92;81.68
11605;BME280;5858;43.076;25.626;2023-01-24T12:00:24;100677.28;;;1.22;81.78
11605;BME280;5858;43.076;25.626;2023-01-24T12:03:43;100705.53;;;1.64;81.54
11605;BME280;5858;43.076;25.626;2023-01-24T12:09:32;100859.69;;;2.63;80.88
11605;BME280;5858;43.076;25.626;2023-01-24T12:12:24;100778.28;;;2.12;80.67
11605;BME280;5858;43.076;25.626;2023-01-24T12:22:16;100647.50;;;1.50;80.27
11605;BME280;5858;43.076;25.626;2023-01-24T12:24:57;100694.81;;;1.81;80.26
11605;BME280;5858;43.076;25.626;2023-01-24T12:27:34;100761.59;;;1.98;80.53
11605;BME280;5858;43.076;25.626;2023-01-24T12:30:15;100816.97;;;2.42;80.49
11605;BME280;5858;43.076;25.626;2023-01-24T12:33:10;100755.06;;;2.03;80.83
11605;BME280;5858;43.076;25.626;2023-01-24T12:35:49;100832.53;;;2.46;80.48
11605;BME280;5858;43.076;25.626;2023-01-24T12:38:36;100837.13;;;2.71;80.60
11605;BME280;5858;43.076;25.626;2023-01-24T12:41:22;100679.72;;;1.83;80.19
11605;BME280;5858;43.076;25.626;2023-01-24T12:44:00;100678.31;;;1.78;80.20
11605;BME280;5858;43.076;25.626;2023-01-24T12:46:42;100653.72;;;1.63;80.65
11605;BME280;5858;43.076;25.626;2023-01-24T12:49:24;100824.03;;;2.41;80.79
11605;BME280;5858;43.076;25.626;2023-01-24T12:52:06;100833.84;;;2.39;80.91
11605;BME280;5858;43.076;25.626;2023-01-24T12:54:46;100688.22;;;1.30;81.60
11605;BME280;5858;43.076;25.626;2023-01-24T12:57:42;100867.81;;;2.45;82.57
11605;BME280;5858;43.076;25.626;2023-01-24T13:00:24;100682.16;;;1.14;82.61
11605;BME280;5858;43.076;25.626;2023-01-24T13:06:11;100813.44;;;2.13;83.32
11605;BME280;5858;43.076;25.626;2023-01-24T13:12:36;100689.94;;;1.01;83.97
11605;BME280;5858;43.076;25.626;2023-01-24T13:15:33;100833.44;;;2.03;84.69
11605;BME280;5858;43.076;25.626;2023-01-24T13:18:36;100844.47;;;2.09;83.65
11605;BME280;5858;43.076;25.626;2023-01-24T13:21:39;100765.84;;;1.40;83.87
11605;BME280;5858;43.076;25.626;2023-01-24T13:24:46;100896.88;;;2.01;84.79
11605;BME280;5858;43.076;25.626;2023-01-24T13:27:39;100763.13;;;1.42;85.04
11605;BME280;5858;43.076;25.626;2023-01-24T13:30:22;100835.94;;;1.90;84.98
11605;BME280;5858;43.076;25.626;2023-01-24T13:32:57;100715.84;;;1.09;84.88
11605;BME280;5858;43.076;25.626;2023-01-24T13:38:26;100710.44;;;0.96;84.93
11605;BME280;5858;43.076;25.626;2023-01-24T13:41:15;100915.88;;;2.22;85.21
11605;BME280;5858;43.076;25.626;2023-01-24T13:44:02;100890.88;;;2.13;85.49
11605;BME280;5858;43.076;25.626;2023-01-24T13:50:09;100759.25;;;1.33;85.91
11605;BME280;5858;43.076;25.626;2023-01-24T13:52:54;100702.00;;;1.05;85.80
11605;BME280;5858;43.076;25.626;2023-01-24T13:58:26;100872.91;;;1.90;86.27
11605;BME280;5858;43.076;25.626;2023-01-24T14:00:59;100824.94;;;1.68;86.20
11605;BME280;5858;43.076;25.626;2023-01-24T14:03:46;100900.41;;;2.16;85.75
11605;BME280;5858;43.076;25.626;2023-01-24T14:06:23;100804.81;;;1.51;86.83
11605;BME280;5858;43.076;25.626;2023-01-24T14:14:57;100921.66;;;1.99;86.53
11605;BME280;5858;43.076;25.626;2023-01-24T14:19:34;100767.75;;;1.38;86.69
11605;BME280;5858;43.076;25.626;2023-01-24T14:22:31;100797.00;;;1.34;86.37
11605;BME280;5858;43.076;25.626;2023-01-24T14:25:32;100747.53;;;1.23;86.16
11605;BME280;5858;43.076;25.626;2023-01-24T14:28:40;100890.84;;;1.99;86.25
11605;BME280;5858;43.076;25.626;2023-01-24T14:31:18;100762.63;;;1.35;86.19
11605;BME280;5858;43.076;25.626;2023-01-24T14:33:50;100864.91;;;1.76;85.98
11605;BME280;5858;43.076;25.626;2023-01-24T14:36:26;100848.31;;;1.74;85.72
11605;BME280;5858;43.076;25.626;2023-01-24T14:39:29;100791.66;;;1.35;86.33
11605;BME280;5858;43.076;25.626;2023-01-24T14:41:57;100832.53;;;1.58;86.49
11605;BME280;5858;43.076;25.626;2023-01-24T14:44:26;100799.66;;;1.34;86.54
11605;BME280;5858;43.076;25.626;2023-01-24T14:46:55;100815.38;;;1.35;86.54
11605;BME280;5858;43.076;25.626;2023-01-24T14:49:30;100829.00;;;1.27;86.88
11605;BME280;5858;43.076;25.626;2023-01-24T14:51:58;100780.31;;;1.03;87.49
11605;BME280;5858;43.076;25.626;2023-01-24T14:54:25;100872.50;;;1.66;87.19
11605;BME280;5858;43.076;25.626;2023-01-24T15:13:49;100898.03;;;1.66;86.93
11605;BME280;5858;43.076;25.626;2023-01-24T15:16:33;100870.59;;;1.38;87.19
11605;BME280;5858;43.076;25.626;2023-01-24T15:19:10;100856.25;;;1.12;87.66
11605;BME280;5858;43.076;25.626;2023-01-24T15:21:47;100937.63;;;1.66;87.22
11605;BME280;5858;43.076;25.626;2023-01-24T15:24:30;100915.31;;;1.71;87.51
11605;BME280;5858;43.076;25.626;2023-01-24T15:30:18;100895.84;;;1.58;86.98
11605;BME280;5858;43.076;25.626;2023-01-24T15:32:46;100883.28;;;1.47;87.20
11605;BME280;5858;43.076;25.626;2023-01-24T15:35:31;100955.69;;;1.57;87.90
11605;BME280;5858;43.076;25.626;2023-01-24T15:38:24;100735.97;;;0.48;86.98
11605;BME280;5858;43.076;25.626;2023-01-24T15:41:18;100882.34;;;1.48;87.15
11605;BME280;5858;43.076;25.626;2023-01-24T15:44:04;100812.44;;;0.94;86.66
11605;BME280;5858;43.076;25.626;2023-01-24T15:46:34;100757.63;;;0.53;86.02
11605;BME280;5858;43.076;25.626;2023-01-24T15:49:28;100935.50;;;1.56;85.95
11605;BME280;5858;43.076;25.626;2023-01-24T15:52:04;100929.28;;;1.57;86.09
11605;BME280;5858;43.076;25.626;2023-01-24T15:54:40;100888.88;;;1.41;85.86
11605;BME280;5858;43.076;25.626;2023-01-24T15:57:17;100777.44;;;0.60;86.12
11605;BME280;5858;43.076;25.626;2023-01-24T15:59:54;100866.34;;;1.20;85.79